Portada
METAR-TAF:

METAR-TAF

Aeroports :

Burgos, Espanya

latitud: 42-22N, longitud: 003-38W, altitud: 894 m

Observació

L'informe es va fer fa 25 minuts, a les 10:30 UTC
Vent 7 kt del Oest, variant entre Sud/Sud-Oest i Oest/Nord-Oest
Temperatura 6°C
Humitat 65%
Pressió 1023 hPa
Visibilitat 10 km o més
sense núvols per sota de 1500 mi sense presència de cumulonimbus.

METAR: LEBG 261030Z 27007KT 200V300 CAVOK 06/00 Q1023

Hora: 11:55 (10:55 UTC)

Pronòstic

L'informe es va fer fa 2 hores i 55 minuts, a les 08:00 UTC
Pronòstic vàlid del 26 a les 09 UTC al 26 a les 18 UTC
Vent 5 kt del Oest
Visibilitat 10 km o més
Núvols disperses a una alçada de 1200 ft

TAF: LEBG 260800Z 2609/2618 26005KT 9999 SCT012

Observacions i pronòstics meteorològics de més de 4000 aeroports (METAR i TAF).

Les estacions disponibles són els punts grocs i vermells al mapa.

Posi el ratolí al punt desitjat per veure el nom de l'estació.

Feu clic per veure les observacions i els pronòstics meteorològics.

Per canviar el mapa: feu clic els botons verds amb una creu de color negre per apropar; al botó verd amb un guió per allunyar la imatge; o en les fletxes verdes per a mapes adjacents.


METAR-TAF: